createdAt,value
2023-03-25T00:00:08.000Z,11.4
2023-03-25T00:01:24.000Z,11.4
2023-03-25T00:02:40.000Z,11.2
2023-03-25T00:03:57.000Z,11.1
2023-03-25T00:05:13.000Z,11.1
2023-03-25T00:06:29.000Z,11.1
2023-03-25T00:07:45.000Z,11.1
2023-03-25T00:09:01.000Z,11.2
2023-03-25T00:10:18.000Z,11.1
2023-03-25T00:11:34.000Z,11.2
2023-03-25T00:12:50.000Z,11.3
2023-03-25T00:14:06.000Z,11.4
2023-03-25T00:15:22.000Z,11.4
2023-03-25T00:16:37.000Z,11.5
2023-03-25T00:17:54.000Z,11.5
2023-03-25T00:19:10.000Z,11.5
2023-03-25T00:20:26.000Z,11.4
2023-03-25T00:21:41.000Z,11.4
2023-03-25T00:22:57.000Z,11.5
2023-03-25T00:24:14.000Z,11.4
2023-03-25T00:25:30.000Z,11.4
2023-03-25T00:26:46.000Z,11.4
2023-03-25T00:28:02.000Z,11.4
2023-03-25T00:29:18.000Z,11.2
2023-03-25T00:30:35.000Z,11.4
2023-03-25T00:31:51.000Z,11.4
2023-03-25T00:33:07.000Z,11.5
2023-03-25T00:34:23.000Z,11.4
2023-03-25T00:35:39.000Z,11.4
2023-03-25T00:36:56.000Z,11.3
2023-03-25T00:38:11.000Z,11.3
2023-03-25T00:39:27.000Z,11.5
2023-03-25T00:40:43.000Z,11.4
2023-03-25T00:41:59.000Z,11.5
2023-03-25T00:43:16.000Z,11.5
2023-03-25T00:44:32.000Z,11.5
2023-03-25T00:45:48.000Z,11.6
2023-03-25T00:47:04.000Z,11.6
2023-03-25T00:48:20.000Z,11.5
2023-03-25T00:49:36.000Z,11.6
2023-03-25T00:50:53.000Z,11.5
2023-03-25T00:52:09.000Z,11.4
2023-03-25T00:53:25.000Z,11.4
2023-03-25T00:54:40.000Z,11.5
2023-03-25T00:55:56.000Z,11.5
2023-03-25T00:57:13.000Z,11.5
2023-03-25T00:58:29.000Z,11.5
2023-03-25T00:59:45.000Z,11.6
2023-03-25T01:01:01.000Z,11.6
2023-03-25T01:02:17.000Z,11.6
2023-03-25T01:03:34.000Z,11.5
2023-03-25T01:04:50.000Z,11.5
2023-03-25T01:06:06.000Z,11.4
2023-03-25T01:07:22.000Z,11.4
2023-03-25T01:08:38.000Z,11.5
2023-03-25T01:09:55.000Z,11.6
2023-03-25T01:11:10.000Z,11.6
2023-03-25T01:12:26.000Z,11.7
2023-03-25T01:13:42.000Z,11.6
2023-03-25T01:14:58.000Z,11.6
2023-03-25T01:16:15.000Z,11.7
2023-03-25T01:17:31.000Z,11.6
2023-03-25T01:18:47.000Z,11.5
2023-03-25T01:20:03.000Z,11.6
2023-03-25T01:21:19.000Z,11.7
2023-03-25T01:22:35.000Z,11.6
2023-03-25T01:23:52.000Z,11.8
2023-03-25T01:25:08.000Z,11.8
2023-03-25T01:26:24.000Z,11.7
2023-03-25T01:27:39.000Z,11.8
2023-03-25T01:28:55.000Z,11.8
2023-03-25T01:30:12.000Z,11.8
2023-03-25T01:31:28.000Z,11.9
2023-03-25T01:32:44.000Z,11.7
2023-03-25T01:34:00.000Z,11.8
2023-03-25T01:35:16.000Z,11.8
2023-03-25T01:36:33.000Z,11.9
2023-03-25T01:37:49.000Z,11.7
2023-03-25T01:39:05.000Z,11.7
2023-03-25T01:40:21.000Z,11.6
2023-03-25T01:41:37.000Z,11.6
2023-03-25T01:42:54.000Z,11.6
2023-03-25T01:44:09.000Z,11.7
2023-03-25T01:45:25.000Z,11.8
2023-03-25T01:46:41.000Z,11.6
2023-03-25T01:47:57.000Z,11.7
2023-03-25T01:49:13.000Z,11.8
2023-03-25T01:50:30.000Z,11.7
2023-03-25T01:51:46.000Z,11.6
2023-03-25T01:53:02.000Z,11.8
2023-03-25T01:54:18.000Z,11.8
2023-03-25T01:55:34.000Z,11.7
2023-03-25T01:56:51.000Z,11.7
2023-03-25T01:58:07.000Z,11.6
2023-03-25T01:59:23.000Z,11.7
2023-03-25T02:00:38.000Z,11.7
2023-03-25T02:01:54.000Z,11.8
2023-03-25T02:03:11.000Z,11.8
2023-03-25T02:04:27.000Z,11.9
2023-03-25T02:05:43.000Z,11.8
2023-03-25T02:06:59.000Z,11.7
2023-03-25T02:08:15.000Z,11.8
2023-03-25T02:09:32.000Z,11.6
2023-03-25T02:10:48.000Z,11.7
2023-03-25T02:12:04.000Z,11.7
2023-03-25T02:13:20.000Z,11.7
2023-03-25T02:14:36.000Z,11.8
2023-03-25T02:15:53.000Z,11.7
2023-03-25T02:17:08.000Z,11.7
2023-03-25T02:18:24.000Z,11.6
2023-03-25T02:19:40.000Z,11.4
2023-03-25T02:20:56.000Z,11.4
2023-03-25T02:22:12.000Z,11.5
2023-03-25T02:23:29.000Z,11.5
2023-03-25T02:24:45.000Z,11.5
2023-03-25T02:26:01.000Z,11.6
2023-03-25T02:27:17.000Z,11.5
2023-03-25T02:28:33.000Z,11.6
2023-03-25T02:29:50.115Z,11.5
2023-03-25T02:31:06.000Z,11.5
2023-03-25T02:32:22.000Z,11.6
2023-03-25T02:33:37.000Z,11.6
2023-03-25T02:34:53.000Z,11.6
2023-03-25T02:36:10.000Z,11.5
2023-03-25T02:37:26.000Z,11.4
2023-03-25T02:38:42.000Z,11.5
2023-03-25T02:39:58.000Z,11.4
2023-03-25T02:41:14.000Z,11.5
2023-03-25T02:42:31.000Z,11.5
2023-03-25T02:43:47.000Z,11.7
2023-03-25T02:45:03.000Z,11.6
2023-03-25T02:46:19.000Z,11.6
2023-03-25T02:47:35.000Z,11.6
2023-03-25T02:48:51.000Z,11.8
2023-03-25T02:50:07.000Z,11.6
2023-03-25T02:51:23.000Z,11.7
2023-03-25T02:52:39.000Z,11.6
2023-03-25T02:53:55.000Z,11.5
2023-03-25T02:55:11.000Z,11.5
2023-03-25T02:56:28.000Z,11.1
2023-03-25T02:57:44.000Z,11.1
2023-03-25T02:59:00.000Z,11.2
2023-03-25T03:00:16.000Z,11.1
2023-03-25T03:01:32.000Z,10.8
2023-03-25T03:02:49.000Z,10.7
2023-03-25T03:04:05.000Z,10.6
2023-03-25T03:05:21.000Z,10.3
2023-03-25T03:06:36.000Z,10.2
2023-03-25T03:07:52.000Z,10.3
2023-03-25T03:09:09.000Z,10.4
2023-03-25T03:10:25.000Z,10.3
2023-03-25T03:11:41.000Z,10.3
2023-03-25T03:12:57.000Z,10.1
2023-03-25T03:14:13.000Z,10.2
2023-03-25T03:15:29.000Z,10.1
2023-03-25T03:16:46.000Z,10.3
2023-03-25T03:18:02.000Z,10.3
2023-03-25T03:19:18.000Z,10.6
2023-03-25T03:20:34.000Z,10.5
2023-03-25T03:21:50.000Z,10.3
2023-03-25T03:23:06.000Z,10.3
2023-03-25T03:24:22.000Z,10.4
2023-03-25T03:25:38.000Z,10.5
2023-03-25T03:26:54.000Z,10.4
2023-03-25T03:28:10.000Z,10.4
2023-03-25T03:29:27.000Z,10.3
2023-03-25T03:30:43.000Z,10.3
2023-03-25T03:31:59.000Z,10.3
2023-03-25T03:33:15.000Z,10.3
2023-03-25T03:34:31.000Z,10.3
2023-03-25T03:35:48.000Z,10.3
2023-03-25T03:37:04.000Z,10.3
2023-03-25T03:38:20.000Z,10.3
2023-03-25T03:39:35.000Z,10.3
2023-03-25T03:40:51.000Z,10.4
2023-03-25T03:42:07.000Z,10.4
2023-03-25T03:43:24.000Z,10.3
2023-03-25T03:44:40.000Z,10.4
2023-03-25T03:45:56.000Z,10.5
2023-03-25T03:47:12.000Z,10.3
2023-03-25T03:48:28.000Z,10.5
2023-03-25T03:49:45.000Z,10.5
2023-03-25T03:51:01.000Z,10.4
2023-03-25T03:52:17.000Z,10.5
2023-03-25T03:54:49.000Z,10.5
2023-03-25T03:56:05.000Z,10.5
2023-03-25T03:57:21.000Z,10.7
2023-03-25T03:58:37.000Z,10.7
2023-03-25T03:59:53.000Z,10.5
2023-03-25T04:01:09.000Z,10.5
2023-03-25T04:02:26.000Z,10.7
2023-03-25T04:03:42.000Z,10.6
2023-03-25T04:04:58.000Z,10.6
2023-03-25T04:06:14.000Z,10.6
2023-03-25T04:07:30.000Z,10.8
2023-03-25T04:08:46.000Z,10.7
2023-03-25T04:10:03.000Z,10.7
2023-03-25T04:11:19.000Z,10.8
2023-03-25T04:12:34.000Z,10.7
2023-03-25T04:13:50.000Z,10.9
2023-03-25T04:15:06.000Z,10.8
2023-03-25T04:16:23.000Z,10.7
2023-03-25T04:17:39.000Z,10.7
2023-03-25T04:18:55.000Z,10.9
2023-03-25T04:20:11.000Z,10.9
2023-03-25T04:21:27.000Z,10.7
2023-03-25T04:22:44.000Z,10.8
2023-03-25T04:24:00.000Z,10.8
2023-03-25T04:25:16.000Z,10.8
2023-03-25T04:26:32.000Z,11.1
2023-03-25T04:27:48.000Z,11.2
2023-03-25T04:29:04.000Z,10.9
2023-03-25T04:30:20.000Z,10.8
2023-03-25T04:31:36.000Z,10.8
2023-03-25T04:32:52.000Z,10.8
2023-03-25T04:34:08.000Z,10.9
2023-03-25T04:35:24.000Z,11
2023-03-25T04:36:40.000Z,10.7
2023-03-25T04:37:56.000Z,10.3
2023-03-25T04:39:12.000Z,10.1
2023-03-25T04:40:28.000Z,10.1
2023-03-25T04:41:44.000Z,10.1
2023-03-25T04:43:01.000Z,10.2
2023-03-25T04:44:17.000Z,10.2
2023-03-25T04:45:33.000Z,10.3
2023-03-25T04:46:49.000Z,10.2
2023-03-25T04:48:05.000Z,10.3
2023-03-25T04:49:22.000Z,10.4
2023-03-25T04:50:38.000Z,10.3
2023-03-25T04:51:54.000Z,10.3
2023-03-25T04:53:09.000Z,10.5
2023-03-25T04:54:25.000Z,10.7
2023-03-25T04:55:42.000Z,10.7
2023-03-25T04:56:58.000Z,10.7
2023-03-25T04:58:14.000Z,10.6
2023-03-25T04:59:30.000Z,10.6
2023-03-25T05:00:46.000Z,10.6
2023-03-25T05:02:02.000Z,10.7
2023-03-25T05:03:19.000Z,10.8
2023-03-25T05:04:35.000Z,10.8
2023-03-25T05:05:51.000Z,10.7
2023-03-25T05:07:07.000Z,10.9
2023-03-25T05:08:23.000Z,10.9
2023-03-25T05:09:39.000Z,10.9
2023-03-25T05:10:55.000Z,10.9
2023-03-25T05:12:11.000Z,10.9
2023-03-25T05:13:27.000Z,10.8
2023-03-25T05:14:43.000Z,10.8
2023-03-25T05:16:00.000Z,10.9
2023-03-25T05:17:16.000Z,11
2023-03-25T05:18:32.000Z,10.9
2023-03-25T05:19:48.000Z,11
2023-03-25T05:21:04.000Z,10.9
2023-03-25T05:22:21.000Z,10.7
2023-03-25T05:23:37.000Z,10.7
2023-03-25T05:24:53.000Z,10.7
2023-03-25T05:26:08.000Z,10.5
2023-03-25T05:27:24.000Z,10.4
2023-03-25T05:28:40.000Z,10.4
2023-03-25T05:29:57.000Z,10.4
2023-03-25T05:31:13.000Z,10.3
2023-03-25T05:32:29.000Z,10.5
2023-03-25T05:33:45.000Z,10.4
2023-03-25T05:35:01.000Z,10.4
2023-03-25T05:36:18.000Z,10.2
2023-03-25T05:37:34.000Z,10.1
2023-03-25T05:38:50.000Z,10.1
2023-03-25T05:40:06.000Z,10.2
2023-03-25T05:41:22.000Z,10.1
2023-03-25T05:42:38.000Z,10.1
2023-03-25T05:43:54.000Z,10.3
2023-03-25T05:45:10.000Z,10.2
2023-03-25T05:46:26.000Z,10.2
2023-03-25T05:47:42.000Z,10.2
2023-03-25T05:48:59.000Z,10.3
2023-03-25T05:50:15.000Z,10.3
2023-03-25T05:51:31.000Z,10.4
2023-03-25T05:52:47.000Z,10.3
2023-03-25T05:54:03.000Z,10.3
2023-03-25T05:55:19.000Z,10.4
2023-03-25T05:56:36.000Z,10.4
2023-03-25T05:57:52.000Z,10.6
2023-03-25T05:59:07.000Z,10.4
2023-03-25T06:00:23.000Z,10.6
2023-03-25T06:01:39.000Z,10.6
2023-03-25T06:02:56.000Z,10.7
2023-03-25T06:04:12.000Z,10.6
2023-03-25T06:05:28.000Z,10.5
2023-03-25T06:06:44.000Z,10.4
2023-03-25T06:08:00.000Z,10.4
2023-03-25T06:09:17.000Z,10.5
2023-03-25T06:10:33.000Z,10.6
2023-03-25T06:11:49.000Z,10.8
2023-03-25T06:13:05.000Z,10.6
2023-03-25T06:14:21.000Z,10.6
2023-03-25T06:15:37.000Z,10.7
2023-03-25T06:16:53.000Z,10.7
2023-03-25T06:18:09.000Z,10.7
2023-03-25T06:19:25.000Z,10.7
2023-03-25T06:20:41.000Z,10.5
2023-03-25T06:21:57.000Z,10.3
2023-03-25T06:23:14.000Z,10.3
2023-03-25T06:24:30.000Z,10.3
2023-03-25T06:25:46.000Z,10.2
2023-03-25T06:27:02.000Z,10.3
2023-03-25T06:28:18.000Z,10.2
2023-03-25T06:29:35.000Z,10.5
2023-03-25T06:30:51.000Z,10.4
2023-03-25T06:32:06.000Z,10.4
2023-03-25T06:33:22.000Z,10.5
2023-03-25T06:34:38.000Z,10.5
2023-03-25T06:35:55.000Z,10.5
2023-03-25T06:37:11.000Z,10.6
2023-03-25T06:38:27.000Z,10.5
2023-03-25T06:39:43.000Z,10.4
2023-03-25T06:40:59.000Z,10.3
2023-03-25T06:42:16.000Z,10.3
2023-03-25T06:43:32.000Z,10.2
2023-03-25T06:44:48.000Z,10
2023-03-25T06:46:04.000Z,10
2023-03-25T06:47:20.000Z,10.3
2023-03-25T06:48:35.000Z,10.2
2023-03-25T06:49:52.000Z,10.2
2023-03-25T06:51:08.000Z,10.1
2023-03-25T06:52:24.000Z,10
2023-03-25T06:53:40.000Z,10.1
2023-03-25T06:54:56.000Z,10.1
2023-03-25T06:56:13.000Z,9.9
2023-03-25T06:57:29.000Z,9.9
2023-03-25T06:58:45.000Z,10.2
2023-03-25T07:00:01.000Z,10.1
2023-03-25T07:01:17.000Z,10.2
2023-03-25T07:02:34.000Z,10.2
2023-03-25T07:03:50.000Z,10.2
2023-03-25T07:05:05.000Z,10.3
2023-03-25T07:06:21.000Z,10.3
2023-03-25T07:07:37.000Z,10.4
2023-03-25T07:08:54.000Z,10.6
2023-03-25T07:10:10.000Z,10.8
2023-03-25T07:11:26.000Z,10.6
2023-03-25T07:12:42.000Z,10.5
2023-03-25T07:13:58.000Z,10.6
2023-03-25T07:15:14.000Z,10.6
2023-03-25T07:16:31.000Z,10.5
2023-03-25T07:17:47.000Z,10.5
2023-03-25T07:19:03.000Z,10.7
2023-03-25T07:20:19.000Z,10.8
2023-03-25T07:21:34.000Z,10.6
2023-03-25T07:22:51.000Z,10.7
2023-03-25T07:24:07.000Z,10.6
2023-03-25T07:25:23.000Z,10.5
2023-03-25T07:26:39.000Z,10.5
2023-03-25T07:27:55.000Z,10.6
2023-03-25T07:29:12.000Z,10.6
2023-03-25T07:30:28.000Z,10.5
2023-03-25T07:31:44.000Z,10.8
2023-03-25T07:33:00.000Z,11
2023-03-25T07:34:16.000Z,10.9
2023-03-25T07:35:33.000Z,11
2023-03-25T07:36:49.000Z,11.2
2023-03-25T07:38:04.000Z,11.2
2023-03-25T07:39:20.000Z,11
2023-03-25T07:40:36.000Z,11.1
2023-03-25T07:41:52.000Z,11.2
2023-03-25T07:43:09.000Z,11.1
2023-03-25T07:44:25.000Z,11.2
2023-03-25T07:45:41.000Z,11.3
2023-03-25T07:46:57.000Z,11.3
2023-03-25T07:48:13.000Z,11.2
2023-03-25T07:49:30.000Z,11.2
2023-03-25T07:50:46.000Z,11.2
2023-03-25T07:52:02.000Z,11.2
2023-03-25T07:53:18.000Z,11.4
2023-03-25T07:54:33.000Z,11.3
2023-03-25T07:55:50.000Z,11.3
2023-03-25T07:57:06.000Z,11.4
2023-03-25T07:58:22.000Z,11.2
2023-03-25T07:59:38.000Z,11.6
2023-03-25T08:00:54.000Z,11.5
2023-03-25T08:02:11.000Z,11.5
2023-03-25T08:03:27.000Z,11.3
2023-03-25T08:04:43.000Z,11.5
2023-03-25T08:05:59.000Z,11.7
2023-03-25T08:07:15.000Z,11.6
2023-03-25T08:08:31.000Z,11.4
2023-03-25T08:09:48.000Z,11.4
2023-03-25T08:11:03.000Z,11.6
2023-03-25T08:12:19.000Z,11.5
2023-03-25T08:13:35.000Z,11.4
2023-03-25T08:14:51.000Z,11.3
2023-03-25T08:16:08.000Z,11.4
2023-03-25T08:17:24.000Z,11.6
2023-03-25T08:18:40.000Z,11.4
2023-03-25T08:19:56.000Z,11.4
2023-03-25T08:21:12.000Z,11.4
2023-03-25T08:22:29.000Z,11.4
2023-03-25T08:23:45.000Z,11.6
2023-03-25T08:25:01.000Z,11.6
2023-03-25T08:26:17.000Z,11.6
2023-03-25T08:27:32.000Z,11.6
2023-03-25T08:28:49.000Z,11.6
2023-03-25T08:30:05.000Z,11.7
2023-03-25T08:31:21.000Z,11.7
2023-03-25T08:32:37.000Z,11.5
2023-03-25T08:33:53.000Z,11.7
2023-03-25T08:35:09.000Z,11.8
2023-03-25T08:36:26.000Z,11.5
2023-03-25T08:37:42.000Z,11.6
2023-03-25T08:38:58.000Z,11.6
2023-03-25T08:40:14.000Z,11.5
2023-03-25T08:41:30.000Z,11.8
2023-03-25T08:42:47.000Z,11.9
2023-03-25T08:44:02.000Z,11.9
2023-03-25T08:45:18.000Z,12
2023-03-25T08:46:34.000Z,12.3
2023-03-25T08:47:50.000Z,12.6
2023-03-25T08:49:07.000Z,12.6
2023-03-25T08:50:23.000Z,12.2
2023-03-25T08:51:38.000Z,12
2023-03-25T08:52:54.000Z,12.1
2023-03-25T08:54:10.000Z,12.3
2023-03-25T08:55:27.000Z,12.3
2023-03-25T08:56:43.000Z,12.1
2023-03-25T08:57:59.000Z,12.3
2023-03-25T08:59:15.000Z,12.1
2023-03-25T09:00:31.000Z,12.3
2023-03-25T09:01:47.000Z,12.1
2023-03-25T09:03:04.000Z,12.1
2023-03-25T09:04:20.000Z,12.2
2023-03-25T09:05:36.000Z,12
2023-03-25T09:06:52.000Z,12.1
2023-03-25T09:08:07.000Z,11.8
2023-03-25T09:09:24.000Z,12
2023-03-25T09:10:40.000Z,11.7
2023-03-25T09:11:56.000Z,11.8
2023-03-25T09:13:12.000Z,12
2023-03-25T09:14:28.000Z,11.9
2023-03-25T09:15:45.000Z,11.9
2023-03-25T09:17:01.000Z,11.9
2023-03-25T09:18:17.000Z,11.8
2023-03-25T09:19:33.000Z,11.8
2023-03-25T09:20:49.000Z,11.9
2023-03-25T09:22:06.000Z,12.1
2023-03-25T09:23:22.000Z,12.2
2023-03-25T09:24:37.000Z,12
2023-03-25T09:25:53.000Z,12
2023-03-25T09:27:09.000Z,12.3
2023-03-25T09:28:25.000Z,12.2
2023-03-25T09:29:42.000Z,12.2
2023-03-25T09:30:58.000Z,12
2023-03-25T09:32:14.000Z,12
2023-03-25T09:33:30.000Z,12.1
2023-03-25T09:34:46.000Z,12.1
2023-03-25T09:36:03.000Z,12.2
2023-03-25T09:37:19.000Z,12
2023-03-25T09:38:35.000Z,11.8
2023-03-25T09:39:51.000Z,11.7
2023-03-25T09:41:06.000Z,11.2
2023-03-25T09:42:23.000Z,11.3
2023-03-25T09:43:39.000Z,11.4
2023-03-25T09:44:55.000Z,11.4
2023-03-25T09:46:11.000Z,11.7
2023-03-25T09:47:27.000Z,11.8
2023-03-25T09:48:44.000Z,11.8
2023-03-25T09:50:00.000Z,11.8
2023-03-25T09:51:16.000Z,11.8
2023-03-25T09:52:32.000Z,12.2
2023-03-25T09:53:48.000Z,12.1
2023-03-25T09:55:04.000Z,12
2023-03-25T09:56:21.000Z,11.8
2023-03-25T09:57:36.000Z,11.4
2023-03-25T09:58:52.000Z,11.5
2023-03-25T10:00:08.000Z,11.6
2023-03-25T10:01:24.000Z,11.8
2023-03-25T10:02:41.000Z,11.7
2023-03-25T10:03:57.000Z,11.8
2023-03-25T10:05:13.000Z,11.8
2023-03-25T10:06:29.000Z,11.9
2023-03-25T10:07:45.000Z,11.8
2023-03-25T10:09:02.000Z,11.9
2023-03-25T10:10:18.000Z,11.9
2023-03-25T10:11:34.000Z,11.9
2023-03-25T10:12:50.000Z,11.9
2023-03-25T10:14:05.000Z,12
2023-03-25T10:15:22.000Z,12.1
2023-03-25T10:16:38.000Z,12.1
2023-03-25T10:17:54.000Z,12.2
2023-03-25T10:19:10.000Z,12.1
2023-03-25T10:20:26.000Z,12
2023-03-25T10:21:42.000Z,12.3
2023-03-25T10:22:59.000Z,12.2
2023-03-25T10:24:15.000Z,12.5
2023-03-25T10:25:31.000Z,12.6
2023-03-25T10:26:47.000Z,12.6
2023-03-25T10:28:03.000Z,12.3
2023-03-25T10:29:20.000Z,12.3
2023-03-25T10:30:35.000Z,12.4
2023-03-25T10:31:51.000Z,12.3
2023-03-25T10:33:07.000Z,12.3
2023-03-25T10:34:23.000Z,12.4
2023-03-25T10:35:40.000Z,12.4
2023-03-25T10:36:56.000Z,12.4
2023-03-25T10:38:12.000Z,12.3
2023-03-25T10:39:28.000Z,12.4
2023-03-25T10:40:44.000Z,12.5
2023-03-25T10:42:00.000Z,12.2
2023-03-25T10:43:17.000Z,12.1
2023-03-25T10:44:33.000Z,12
2023-03-25T10:45:49.000Z,12.2
2023-03-25T10:47:04.000Z,12.3
2023-03-25T10:48:20.000Z,12.4
2023-03-25T10:49:37.000Z,12.3
2023-03-25T10:50:53.000Z,12.5
2023-03-25T10:52:09.000Z,12.7
2023-03-25T10:53:25.000Z,12.3
2023-03-25T10:54:41.000Z,12.7
2023-03-25T10:55:58.000Z,12.7
2023-03-25T10:57:14.000Z,13
2023-03-25T10:58:30.000Z,13.2
2023-03-25T10:59:46.000Z,13.3
2023-03-25T11:01:02.000Z,12.9
2023-03-25T11:02:19.000Z,12.4
2023-03-25T11:03:34.000Z,12.2
2023-03-25T11:04:50.000Z,12.3
2023-03-25T11:06:06.000Z,12.2
2023-03-25T11:07:22.000Z,12.3
2023-03-25T11:08:38.000Z,12.2
2023-03-25T11:09:55.000Z,12.6
2023-03-25T11:11:11.000Z,12.7
2023-03-25T11:12:27.000Z,12.6
2023-03-25T11:13:43.000Z,12.3
2023-03-25T11:14:59.000Z,12.4
2023-03-25T11:16:16.000Z,12.6
2023-03-25T11:17:32.000Z,12.6
2023-03-25T11:18:48.000Z,12.6
2023-03-25T11:20:03.000Z,12.6
2023-03-25T11:21:19.000Z,12.6
2023-03-25T11:22:36.000Z,12.6
2023-03-25T11:23:52.000Z,12.7
2023-03-25T11:25:08.000Z,13
2023-03-25T11:26:24.000Z,13.2
2023-03-25T11:27:40.000Z,12.7
2023-03-25T11:28:57.000Z,12.7
2023-03-25T11:30:13.000Z,12.7
2023-03-25T11:31:29.000Z,12.8
2023-03-25T11:32:45.000Z,12.9
2023-03-25T11:34:01.000Z,12.8
2023-03-25T11:35:17.000Z,12.7
2023-03-25T11:36:33.000Z,12.9
2023-03-25T11:37:49.000Z,13
2023-03-25T11:39:05.000Z,12.9
2023-03-25T11:40:21.000Z,12.9
2023-03-25T11:41:37.000Z,13
2023-03-25T11:42:54.000Z,12.6
2023-03-25T11:44:10.000Z,12.4
2023-03-25T11:45:26.000Z,12.1
2023-03-25T11:46:42.000Z,12
2023-03-25T11:47:58.000Z,11.7
2023-03-25T11:49:15.000Z,11.7
2023-03-25T11:50:31.000Z,11.8
2023-03-25T11:51:47.000Z,11.8
2023-03-25T11:53:02.000Z,11.7
2023-03-25T11:54:18.000Z,11.6
2023-03-25T11:55:35.000Z,11.5
2023-03-25T11:56:51.000Z,11.6
2023-03-25T11:58:07.000Z,11.6
2023-03-25T11:59:23.000Z,11.5
2023-03-25T12:00:39.000Z,11.2
2023-03-25T12:01:55.000Z,11.1
2023-03-25T12:03:12.000Z,11
2023-03-25T12:04:28.000Z,11.1
2023-03-25T12:05:44.000Z,11.4
2023-03-25T12:07:00.000Z,11.8
2023-03-25T12:08:16.000Z,12.5
2023-03-25T12:09:32.000Z,12.4
2023-03-25T12:10:48.000Z,12.6
2023-03-25T12:12:04.000Z,12.3
2023-03-25T12:13:20.000Z,11.8
2023-03-25T12:14:36.000Z,11.7
2023-03-25T12:15:53.000Z,12
2023-03-25T12:17:09.000Z,11.9
2023-03-25T12:18:25.000Z,11.9
2023-03-25T12:19:41.000Z,12.5
2023-03-25T12:20:57.000Z,13
2023-03-25T12:22:14.000Z,13
2023-03-25T12:23:30.000Z,12.9
2023-03-25T12:24:46.000Z,13
2023-03-25T12:26:01.000Z,13.1
2023-03-25T12:27:17.000Z,12.9
2023-03-25T12:28:33.000Z,12.7
2023-03-25T12:29:50.000Z,12.7
2023-03-25T12:31:06.000Z,12.8
2023-03-25T12:32:22.000Z,12.9
2023-03-25T12:33:38.000Z,12.8
2023-03-25T12:34:54.000Z,12.7
2023-03-25T12:36:11.000Z,12.5
2023-03-25T12:37:27.000Z,12.5
2023-03-25T12:38:43.000Z,12.5
2023-03-25T12:39:59.000Z,12.6
2023-03-25T12:41:15.000Z,12.4
2023-03-25T12:42:31.000Z,12.3
2023-03-25T12:43:47.000Z,12.4
2023-03-25T12:45:03.000Z,12.1
2023-03-25T12:46:19.000Z,12.3
2023-03-25T12:47:35.000Z,12.2
2023-03-25T12:48:52.000Z,12
2023-03-25T12:50:08.000Z,12
2023-03-25T12:51:24.000Z,12.1
2023-03-25T12:52:40.000Z,12.1
2023-03-25T12:53:56.000Z,12.2
2023-03-25T12:55:13.000Z,12
2023-03-25T12:56:29.000Z,12
2023-03-25T12:57:45.000Z,12.3
2023-03-25T12:59:00.000Z,12.4
2023-03-25T13:00:16.000Z,13.2
2023-03-25T13:01:32.000Z,13.8
2023-03-25T13:02:49.000Z,13.1
2023-03-25T13:04:05.000Z,13.5
2023-03-25T13:05:21.000Z,13.6
2023-03-25T13:06:36.000Z,13.4
2023-03-25T13:07:52.000Z,13.2
2023-03-25T13:09:09.000Z,13.1
2023-03-25T13:10:25.000Z,12.2
2023-03-25T13:11:41.000Z,12.1
2023-03-25T13:12:57.000Z,12.2
2023-03-25T13:14:13.000Z,12.4
2023-03-25T13:15:30.000Z,12.2
2023-03-25T13:16:46.000Z,12.4
2023-03-25T13:18:02.000Z,12.3
2023-03-25T13:19:18.000Z,12.4
2023-03-25T13:20:34.000Z,12.2
2023-03-25T13:21:51.000Z,11.9
2023-03-25T13:23:06.000Z,12
2023-03-25T13:24:22.000Z,12.2
2023-03-25T13:25:38.000Z,12.3
2023-03-25T13:26:54.000Z,11.9
2023-03-25T13:28:11.000Z,11.7
2023-03-25T13:29:27.000Z,11.6
2023-03-25T13:30:43.000Z,11.5
2023-03-25T13:31:59.000Z,11.1
2023-03-25T13:33:15.000Z,10.6
2023-03-25T13:34:31.000Z,10.6
2023-03-25T13:35:48.000Z,10.7
2023-03-25T13:37:04.000Z,10.9
2023-03-25T13:38:20.000Z,10.8
2023-03-25T13:39:35.000Z,10.8
2023-03-25T13:40:51.000Z,10.8
2023-03-25T13:42:08.000Z,10.8
2023-03-25T13:43:24.000Z,11.1
2023-03-25T13:44:40.000Z,11.4
2023-03-25T13:45:56.000Z,11.6
2023-03-25T13:47:12.000Z,12
2023-03-25T13:48:29.000Z,11.7
2023-03-25T13:49:45.000Z,11.4
2023-03-25T13:51:01.000Z,11.6
2023-03-25T13:52:17.000Z,11.7
2023-03-25T13:53:33.000Z,11.3
2023-03-25T13:54:50.000Z,11.3
2023-03-25T13:56:05.000Z,11.6
2023-03-25T13:57:21.000Z,11.6
2023-03-25T13:58:37.000Z,12.2
2023-03-25T13:59:53.000Z,12
2023-03-25T14:01:09.000Z,11.7
2023-03-25T14:02:26.000Z,11.4
2023-03-25T14:03:42.000Z,11.4
2023-03-25T14:04:58.000Z,11.4
2023-03-25T14:06:14.000Z,11.4
2023-03-25T14:07:30.000Z,11.2
2023-03-25T14:08:47.000Z,10.8
2023-03-25T14:10:03.000Z,10.9
2023-03-25T14:11:19.000Z,10.9
2023-03-25T14:12:34.000Z,10.9
2023-03-25T14:13:50.000Z,10.7
2023-03-25T14:15:07.000Z,10.8
2023-03-25T14:16:23.000Z,10.6
2023-03-25T14:17:39.000Z,10.8
2023-03-25T14:18:55.000Z,10.6
2023-03-25T14:20:11.000Z,10.6
2023-03-25T14:21:28.000Z,10.6
2023-03-25T14:22:44.000Z,10.8
2023-03-25T14:24:00.000Z,11
2023-03-25T14:25:16.000Z,10.8
2023-03-25T14:26:32.000Z,10.8
2023-03-25T14:27:48.000Z,10.8
2023-03-25T14:29:04.000Z,10.9
2023-03-25T14:30:20.000Z,11
2023-03-25T14:31:36.000Z,10.8
2023-03-25T14:32:52.000Z,10.8
2023-03-25T14:34:08.000Z,10.9
2023-03-25T14:35:25.000Z,10.8
2023-03-25T14:36:41.000Z,10.9
2023-03-25T14:37:57.000Z,10.9
2023-03-25T14:39:13.000Z,10.9
2023-03-25T14:40:29.000Z,11.1
2023-03-25T14:41:46.000Z,11.2
2023-03-25T14:43:02.000Z,11.2
2023-03-25T14:44:18.000Z,11.3
2023-03-25T14:45:33.000Z,11.2
2023-03-25T14:46:49.000Z,11.4
2023-03-25T14:48:06.000Z,11.3
2023-03-25T14:49:22.000Z,11.1
2023-03-25T14:50:38.000Z,11.1
2023-03-25T14:51:54.000Z,11.3
2023-03-25T14:53:10.000Z,11
2023-03-25T14:54:27.000Z,11
2023-03-25T14:55:43.000Z,11.1
2023-03-25T14:56:59.000Z,11.1
2023-03-25T14:58:15.000Z,11.1
2023-03-25T14:59:31.000Z,11.1
2023-03-25T15:00:47.000Z,11.2
2023-03-25T15:02:03.000Z,11.5
2023-03-25T15:03:19.000Z,11.8
2023-03-25T15:04:35.000Z,11.8
2023-03-25T15:05:51.000Z,11.9
2023-03-25T15:07:07.000Z,11.9
2023-03-25T15:08:24.000Z,11.8
2023-03-25T15:09:40.000Z,11.8
2023-03-25T15:10:56.000Z,12.2
2023-03-25T15:12:12.000Z,12.2
2023-03-25T15:13:28.000Z,12.3
2023-03-25T15:14:45.000Z,12.3
2023-03-25T15:16:01.000Z,11.9
2023-03-25T15:17:17.000Z,12.3
2023-03-25T15:18:32.000Z,12.7
2023-03-25T15:19:48.000Z,12.9
2023-03-25T15:21:05.000Z,12.7
2023-03-25T15:22:21.000Z,12.7
2023-03-25T15:23:37.000Z,12.9
2023-03-25T15:24:53.000Z,12.7
2023-03-25T15:26:09.000Z,12.3
2023-03-25T15:27:26.000Z,12.7
2023-03-25T15:28:42.000Z,12.5
2023-03-25T15:29:58.000Z,12.3
2023-03-25T15:31:14.000Z,12.5
2023-03-25T15:32:30.000Z,12.5
2023-03-25T15:33:46.000Z,12.2
2023-03-25T15:35:02.000Z,12.1
2023-03-25T15:36:18.000Z,12.2
2023-03-25T15:37:34.000Z,12.2
2023-03-25T15:38:50.000Z,12.1
2023-03-25T15:40:06.000Z,11.7
2023-03-25T15:41:23.000Z,11.5
2023-03-25T15:42:39.000Z,11.4
2023-03-25T15:43:55.000Z,11.6
2023-03-25T15:45:11.000Z,11.5
2023-03-25T15:46:27.000Z,11.7
2023-03-25T15:47:44.000Z,11.7
2023-03-25T15:49:00.000Z,11.8
2023-03-25T15:50:16.000Z,11.9
2023-03-25T15:51:31.000Z,11.8
2023-03-25T15:52:47.000Z,12
2023-03-25T15:54:04.000Z,12.1
2023-03-25T15:55:20.000Z,12.3
2023-03-25T15:56:36.000Z,12.4
2023-03-25T15:57:52.000Z,12.2
2023-03-25T15:59:08.000Z,12.3
2023-03-25T16:00:24.000Z,12.3
2023-03-25T16:01:41.000Z,12.4
2023-03-25T16:02:57.000Z,12.2
2023-03-25T16:04:13.000Z,12.2
2023-03-25T16:05:29.000Z,12.3
2023-03-25T16:06:45.000Z,11.9
2023-03-25T16:08:01.000Z,11.9
2023-03-25T16:09:17.000Z,11.7
2023-03-25T16:10:33.000Z,11.6
2023-03-25T16:11:49.000Z,11.5
2023-03-25T16:13:05.000Z,11.2
2023-03-25T16:14:22.000Z,11.1
2023-03-25T16:15:38.000Z,11.1
2023-03-25T16:16:54.000Z,11.2
2023-03-25T16:18:10.000Z,11.1
2023-03-25T16:19:26.000Z,11.1
2023-03-25T16:20:43.000Z,11.1
2023-03-25T16:21:59.000Z,11.1
2023-03-25T16:23:15.000Z,11.1
2023-03-25T16:24:30.000Z,11.1
2023-03-25T16:25:46.000Z,11.4
2023-03-25T16:27:03.000Z,11.3
2023-03-25T16:28:19.000Z,11.4
2023-03-25T16:29:35.000Z,11.5
2023-03-25T16:30:51.000Z,11.6
2023-03-25T16:32:07.000Z,11.5
2023-03-25T16:33:23.000Z,11.6
2023-03-25T16:34:40.000Z,11.7
2023-03-25T16:35:56.000Z,11.9
2023-03-25T16:37:12.000Z,11.9
2023-03-25T16:38:28.000Z,11.8
2023-03-25T16:39:44.000Z,11.8
2023-03-25T16:41:00.000Z,11.8
2023-03-25T16:42:16.000Z,11.6
2023-03-25T16:43:32.000Z,11.9
2023-03-25T16:44:48.000Z,11.8
2023-03-25T16:46:04.000Z,11.8
2023-03-25T16:47:21.000Z,11.8
2023-03-25T16:48:37.000Z,11.7
2023-03-25T16:49:53.000Z,11.5
2023-03-25T16:51:09.000Z,11.5
2023-03-25T16:52:25.000Z,11.6
2023-03-25T16:53:42.000Z,11.6
2023-03-25T16:54:58.000Z,11.7
2023-03-25T16:56:14.000Z,11.6
2023-03-25T16:57:29.000Z,11.5